KGLE/GLE METAR and TAF weather

Enter ICAO airport designator
Station Type Date Time Source
KGLE METAR 2019/08/22 15:15 UTC NOAA

KGLE 221515Z AUTO 19010KT 10SM CLR 30/20 A2998 RMK AO2 T03020200


Station Type Date Time Source
KGLE Decoded METAR 2019/08/22 15:15 UTC NOAA

Station name not available
Aug 22, 2019 - 11:15 AM EDT / 2019.08.22 1515 UTC
Wind: from the S (190 degrees) at 12 MPH (10 KT):0
Visibility: 10 mile(s):0
Sky conditions: clear
Temperature: 86.4 F (30.2 C)
Dew Point: 68.0 F (20.0 C)
Relative Humidity: 54%
Pressure (altimeter): 29.98 in. Hg (1015 hPa)
ob: KGLE 221515Z AUTO 19010KT 10SM CLR 30/20 A2998 RMK AO2 T03020200
cycle: 15

Station Type Date Time Source
KGLE TAF UTC NOAA

Error!

Example: see airport list